createdAt,value
2022-12-03T00:02:44.587Z,30.60
2022-12-03T00:05:31.325Z,34.85
2022-12-03T00:08:17.729Z,37.00
2022-12-03T00:11:04.317Z,46.78
2022-12-03T00:13:50.440Z,35.25
2022-12-03T00:16:37.225Z,33.08
2022-12-03T00:19:24.339Z,40.05
2022-12-03T00:22:12.602Z,39.30
2022-12-03T00:24:59.318Z,39.15
2022-12-03T00:27:45.980Z,35.22
2022-12-03T00:30:32.729Z,41.58
2022-12-03T00:33:19.824Z,41.20
2022-12-03T00:36:05.999Z,38.10
2022-12-03T00:38:53.495Z,37.90
2022-12-03T00:41:41.863Z,37.22
2022-12-03T00:44:29.033Z,33.13
2022-12-03T00:47:15.422Z,38.35
2022-12-03T00:50:01.724Z,37.45
2022-12-03T00:52:48.761Z,39.38
2022-12-03T00:55:35.224Z,36.47
2022-12-03T00:58:21.181Z,33.92
2022-12-03T01:01:07.403Z,39.92
2022-12-03T01:03:54.037Z,45.03
2022-12-03T01:06:40.701Z,37.67
2022-12-03T01:09:27.239Z,44.85
2022-12-03T01:12:13.906Z,36.85
2022-12-03T01:15:00.075Z,35.65
2022-12-03T01:17:46.866Z,42.53
2022-12-03T01:20:33.382Z,38.65
2022-12-03T01:23:20.077Z,35.83
2022-12-03T01:26:06.398Z,41.03
2022-12-03T01:28:53.479Z,37.13
2022-12-03T01:31:58.194Z,41.90
2022-12-03T01:34:45.288Z,39.22
2022-12-03T01:37:31.735Z,37.72
2022-12-03T01:40:20.828Z,43.42
2022-12-03T01:43:06.933Z,40.75
2022-12-03T01:45:53.135Z,48.03
2022-12-03T01:48:39.535Z,40.00
2022-12-03T01:51:25.957Z,42.92
2022-12-03T01:54:19.832Z,40.97
2022-12-03T01:57:07.892Z,39.97
2022-12-03T01:59:55.430Z,46.90
2022-12-03T02:02:41.681Z,38.55
2022-12-03T02:05:29.090Z,40.72
2022-12-03T02:08:32.161Z,38.22
2022-12-03T02:11:32.742Z,36.88
2022-12-03T02:14:21.074Z,38.58
2022-12-03T02:17:07.622Z,36.10
2022-12-03T02:19:54.464Z,38.95
2022-12-03T02:22:59.639Z,38.42
2022-12-03T02:25:45.957Z,43.15
2022-12-03T02:28:32.531Z,40.75
2022-12-03T02:31:18.993Z,39.08
2022-12-03T02:34:34.173Z,46.30
2022-12-03T02:37:25.422Z,39.13
2022-12-03T02:40:13.489Z,41.33
2022-12-03T02:43:00.934Z,43.75
2022-12-03T02:45:54.703Z,38.08
2022-12-03T02:48:41.976Z,39.33
2022-12-03T02:51:28.720Z,40.03
2022-12-03T02:54:15.268Z,38.92
2022-12-03T02:57:01.422Z,41.05
2022-12-03T02:59:47.757Z,42.63
2022-12-03T03:02:37.355Z,45.95
2022-12-03T03:05:24.712Z,44.67
2022-12-03T03:08:11.691Z,45.35
2022-12-03T03:10:59.082Z,44.25
2022-12-03T03:13:45.393Z,49.40
2022-12-03T03:16:31.734Z,47.10
2022-12-03T03:19:18.449Z,43.55
2022-12-03T03:22:06.979Z,44.33
2022-12-03T03:24:53.410Z,44.70
2022-12-03T03:27:41.616Z,42.22
2022-12-03T03:30:28.828Z,42.70
2022-12-03T03:33:16.267Z,41.42
2022-12-03T03:36:02.683Z,44.03
2022-12-03T03:38:49.990Z,44.15
2022-12-03T03:41:36.923Z,40.30
2022-12-03T03:44:22.939Z,44.28
2022-12-03T03:47:09.349Z,47.20
2022-12-03T03:49:55.483Z,50.05
2022-12-03T03:52:42.052Z,40.72
2022-12-03T03:55:32.983Z,43.35
2022-12-03T03:58:26.914Z,44.83
2022-12-03T04:01:18.091Z,44.30
2022-12-03T04:04:06.169Z,38.88
2022-12-03T04:06:53.937Z,44.00
2022-12-03T04:09:40.525Z,41.90
2022-12-03T04:12:45.356Z,36.17
2022-12-03T04:15:31.853Z,40.00
2022-12-03T04:18:36.679Z,38.72
2022-12-03T04:21:42.628Z,38.75
2022-12-03T04:24:28.984Z,41.78
2022-12-03T04:27:33.819Z,37.20
2022-12-03T04:30:20.358Z,36.15
2022-12-03T04:33:24.930Z,34.53
2022-12-03T04:36:11.331Z,33.97
2022-12-03T04:38:57.744Z,34.03
2022-12-03T04:41:43.803Z,36.05
2022-12-03T04:44:36.587Z,35.65
2022-12-03T04:47:23.270Z,37.30
2022-12-03T04:50:09.834Z,40.10
2022-12-03T04:52:57.410Z,35.42
2022-12-03T04:55:43.464Z,35.33
2022-12-03T04:58:29.617Z,35.97
2022-12-03T05:01:15.747Z,35.55
2022-12-03T05:04:01.920Z,32.97
2022-12-03T05:06:48.263Z,37.92
2022-12-03T05:09:34.755Z,40.95
2022-12-03T05:12:20.884Z,34.58
2022-12-03T05:15:07.424Z,35.63
2022-12-03T05:17:53.669Z,32.92
2022-12-03T05:20:45.697Z,32.03
2022-12-03T05:23:35.971Z,34.92
2022-12-03T05:26:22.186Z,31.42
2022-12-03T05:29:08.402Z,27.67
2022-12-03T05:31:54.699Z,35.22
2022-12-03T05:34:41.423Z,27.35
2022-12-03T05:37:28.115Z,26.85
2022-12-03T05:40:14.990Z,28.13
2022-12-03T05:43:01.916Z,24.20
2022-12-03T05:45:48.612Z,27.95
2022-12-03T05:48:38.539Z,28.15
2022-12-03T05:51:24.450Z,28.95
2022-12-03T05:54:11.397Z,29.92
2022-12-03T05:56:57.504Z,32.42
2022-12-03T06:00:05.212Z,29.38
2022-12-03T06:02:58.829Z,31.35
2022-12-03T06:05:45.284Z,32.75
2022-12-03T06:08:31.578Z,29.17
2022-12-03T06:11:18.056Z,28.88
2022-12-03T06:14:04.794Z,29.38
2022-12-03T06:16:50.892Z,30.15
2022-12-03T06:19:37.048Z,38.78
2022-12-03T06:22:23.289Z,31.45
2022-12-03T06:25:09.646Z,33.38
2022-12-03T06:27:56.011Z,31.70
2022-12-03T06:30:42.348Z,32.00
2022-12-03T06:33:28.485Z,29.05
2022-12-03T06:36:17.699Z,32.42
2022-12-03T06:39:06.262Z,37.05
2022-12-03T06:41:52.547Z,35.53
2022-12-03T06:44:39.018Z,31.42
2022-12-03T06:47:25.437Z,37.35
2022-12-03T06:50:12.136Z,33.30
2022-12-03T06:52:58.295Z,33.28
2022-12-03T06:55:44.484Z,38.17
2022-12-03T06:58:30.823Z,31.95
2022-12-03T07:01:17.015Z,36.08
2022-12-03T07:04:02.826Z,39.60
2022-12-03T07:06:49.050Z,38.47
2022-12-03T07:09:35.204Z,40.22
2022-12-03T07:12:21.672Z,36.22
2022-12-03T07:15:07.955Z,33.60
2022-12-03T07:17:55.015Z,45.25
2022-12-03T07:20:41.334Z,37.25
2022-12-03T07:23:27.730Z,35.40
2022-12-03T07:26:13.971Z,34.45
2022-12-03T07:29:00.280Z,37.03
2022-12-03T07:31:46.548Z,37.70
2022-12-03T07:34:33.045Z,39.28
2022-12-03T07:37:23.071Z,40.60
2022-12-03T07:40:09.978Z,40.72
2022-12-03T07:42:55.985Z,48.38
2022-12-03T07:45:42.185Z,48.88
2022-12-03T07:48:28.196Z,47.30
2022-12-03T07:51:15.592Z,49.17
2022-12-03T07:54:02.063Z,52.42
2022-12-03T07:56:50.999Z,49.42
2022-12-03T07:59:37.016Z,52.97
2022-12-03T08:02:23.200Z,53.85
2022-12-03T08:05:09.797Z,49.78
2022-12-03T08:07:56.619Z,47.22
2022-12-03T08:10:43.121Z,49.30
2022-12-03T08:13:29.221Z,46.42
2022-12-03T08:16:19.771Z,51.00
2022-12-03T08:19:10.412Z,49.00
2022-12-03T08:22:01.041Z,50.00
2022-12-03T08:24:47.702Z,57.47
2022-12-03T08:27:34.467Z,58.60
2022-12-03T08:30:20.788Z,56.35
2022-12-03T08:33:14.298Z,49.88
2022-12-03T08:36:01.914Z,52.30
2022-12-03T08:38:52.768Z,49.58
2022-12-03T08:41:57.729Z,51.75
2022-12-03T08:44:44.070Z,53.92
2022-12-03T08:47:30.414Z,50.00
2022-12-03T08:50:39.211Z,52.88
2022-12-03T08:53:28.352Z,51.40
2022-12-03T08:56:20.850Z,52.40
2022-12-03T08:59:26.896Z,49.63
2022-12-03T09:02:20.366Z,48.08
2022-12-03T09:05:14.389Z,54.65
2022-12-03T09:08:00.552Z,47.58
2022-12-03T09:10:47.006Z,47.80
2022-12-03T09:13:33.050Z,47.20
2022-12-03T09:16:20.184Z,47.88
2022-12-03T09:19:06.642Z,50.88
2022-12-03T09:21:53.643Z,48.15
2022-12-03T09:24:40.205Z,47.30
2022-12-03T09:27:26.900Z,46.88
2022-12-03T09:30:13.790Z,49.30
2022-12-03T09:33:00.547Z,47.88
2022-12-03T09:35:46.589Z,49.08
2022-12-03T09:38:32.664Z,52.65
2022-12-03T09:41:19.072Z,51.78
2022-12-03T09:44:05.821Z,54.33
2022-12-03T09:46:53.369Z,48.90
2022-12-03T09:49:41.153Z,54.97
2022-12-03T09:52:29.785Z,45.22
2022-12-03T09:55:17.595Z,46.40
2022-12-03T09:58:03.732Z,47.40
2022-12-03T10:00:51.089Z,45.08
2022-12-03T10:03:39.163Z,44.00
2022-12-03T10:06:25.128Z,46.40
2022-12-03T10:09:12.448Z,48.45
2022-12-03T10:12:00.046Z,46.25
2022-12-03T10:14:46.196Z,48.75
2022-12-03T10:17:32.777Z,49.28
2022-12-03T10:20:20.111Z,46.65
2022-12-03T10:23:06.582Z,48.08
2022-12-03T10:25:55.033Z,46.83
2022-12-03T10:28:43.611Z,45.95
2022-12-03T10:31:37.631Z,47.28
2022-12-03T10:34:30.763Z,46.50
2022-12-03T10:37:17.619Z,43.05
2022-12-03T10:40:13.324Z,54.22
2022-12-03T10:43:14.906Z,51.30
2022-12-03T10:46:04.919Z,50.65
2022-12-03T10:49:12.607Z,49.13
2022-12-03T10:51:59.014Z,46.65
2022-12-03T10:54:45.506Z,50.00
2022-12-03T10:57:31.606Z,47.30
2022-12-03T11:00:19.285Z,48.35
2022-12-03T11:03:07.412Z,45.55
2022-12-03T11:05:54.992Z,58.80
2022-12-03T11:08:44.059Z,49.50
2022-12-03T11:11:32.313Z,48.42
2022-12-03T11:14:42.161Z,50.88
2022-12-03T11:17:58.184Z,48.22
2022-12-03T11:20:47.554Z,45.45
2022-12-03T11:23:45.665Z,47.67
2022-12-03T11:26:31.758Z,44.33
2022-12-03T11:29:17.958Z,51.10
2022-12-03T11:32:04.786Z,53.45
2022-12-03T11:34:51.327Z,50.42
2022-12-03T11:37:38.014Z,45.28
2022-12-03T11:40:24.125Z,56.55
2022-12-03T11:43:11.020Z,57.35
2022-12-03T11:46:02.686Z,58.53
2022-12-03T11:48:52.101Z,49.90
2022-12-03T11:51:39.359Z,56.30
2022-12-03T11:54:25.668Z,47.63
2022-12-03T11:57:29.509Z,46.35
2022-12-03T12:00:23.401Z,47.90
2022-12-03T12:03:26.400Z,50.42
2022-12-03T12:06:14.498Z,49.05
2022-12-03T12:09:03.532Z,56.53
2022-12-03T12:11:50.131Z,59.50
2022-12-03T12:14:38.717Z,59.30
2022-12-03T12:17:37.601Z,52.22
2022-12-03T12:20:24.868Z,50.50
2022-12-03T12:23:29.127Z,53.13
2022-12-03T12:26:15.213Z,54.75
2022-12-03T12:29:01.480Z,58.22
2022-12-03T12:31:52.347Z,51.42
2022-12-03T12:34:43.384Z,57.53
2022-12-03T12:37:37.305Z,56.85
2022-12-03T12:40:27.938Z,54.65
2022-12-03T12:43:23.769Z,54.42
2022-12-03T12:46:46.620Z,52.60
2022-12-03T12:49:26.961Z,56.40
2022-12-03T12:52:28.955Z,55.97
2022-12-03T12:55:16.605Z,52.65
2022-12-03T12:58:04.211Z,56.25
2022-12-03T13:00:55.760Z,60.17
2022-12-03T13:03:42.035Z,56.08
2022-12-03T13:06:29.485Z,60.38
2022-12-03T13:09:20.565Z,55.85
2022-12-03T13:12:07.593Z,56.15
2022-12-03T13:14:57.392Z,59.20
2022-12-03T13:17:43.781Z,52.70
2022-12-03T13:20:30.025Z,57.17
2022-12-03T13:23:24.134Z,58.72
2022-12-03T13:26:30.535Z,61.65
2022-12-03T13:29:22.968Z,60.35
2022-12-03T13:32:17.778Z,62.53
2022-12-03T13:35:07.539Z,55.03
2022-12-03T13:37:54.050Z,51.40
2022-12-03T13:40:41.472Z,59.50
2022-12-03T13:43:31.023Z,56.63
2022-12-03T13:46:17.295Z,58.17
2022-12-03T13:49:04.343Z,58.92
2022-12-03T13:51:50.797Z,62.40
2022-12-03T13:54:39.399Z,62.95
2022-12-03T13:57:25.609Z,56.55
2022-12-03T14:00:12.293Z,54.53
2022-12-03T14:02:58.869Z,59.00
2022-12-03T14:05:44.948Z,72.03
2022-12-03T14:08:31.203Z,72.43
2022-12-03T14:11:35.855Z,61.63
2022-12-03T14:14:22.046Z,64.25
2022-12-03T14:17:10.321Z,61.80
2022-12-03T14:19:58.872Z,53.45
2022-12-03T14:22:45.200Z,58.30
2022-12-03T14:25:32.095Z,52.50
2022-12-03T14:28:19.409Z,57.70
2022-12-03T14:31:05.634Z,49.03
2022-12-03T14:33:51.857Z,54.38
2022-12-03T14:36:37.890Z,48.97
2022-12-03T14:39:23.976Z,57.78
2022-12-03T14:42:16.904Z,52.10
2022-12-03T14:47:49.640Z,56.33
2022-12-03T14:50:36.363Z,66.85
2022-12-03T14:53:27.075Z,52.58
2022-12-03T14:56:14.339Z,52.45
2022-12-03T14:59:00.576Z,59.20
2022-12-03T15:01:46.874Z,55.92
2022-12-03T15:04:33.165Z,62.90
2022-12-03T15:07:19.876Z,61.83
2022-12-03T15:10:07.633Z,61.80
2022-12-03T15:12:53.654Z,65.53
2022-12-03T15:15:40.060Z,69.93
2022-12-03T15:18:26.470Z,67.35
2022-12-03T15:21:12.633Z,63.45
2022-12-03T15:23:59.101Z,72.13
2022-12-03T15:26:47.123Z,69.35
2022-12-03T15:29:34.215Z,114.18
2022-12-03T15:32:20.546Z,81.03
2022-12-03T15:35:06.968Z,66.63
2022-12-03T15:37:53.540Z,70.35
2022-12-03T15:40:40.264Z,71.00
2022-12-03T15:43:26.379Z,67.57
2022-12-03T15:46:12.599Z,71.70
2022-12-03T15:48:59.304Z,72.82
2022-12-03T15:51:45.512Z,73.55
2022-12-03T15:54:31.522Z,63.65
2022-12-03T15:57:18.264Z,66.50
2022-12-03T16:00:05.146Z,65.63
2022-12-03T16:02:59.007Z,69.28
2022-12-03T16:05:45.126Z,70.25
2022-12-03T16:08:31.355Z,70.22
2022-12-03T16:11:17.743Z,63.35
2022-12-03T16:14:04.145Z,71.22
2022-12-03T16:16:50.440Z,68.85
2022-12-03T16:19:36.612Z,70.82
2022-12-03T16:22:22.640Z,68.32
2022-12-03T16:25:09.087Z,75.88
2022-12-03T16:28:01.512Z,76.32
2022-12-03T16:30:47.722Z,71.97
2022-12-03T16:33:33.936Z,72.78
2022-12-03T16:36:21.418Z,72.68
2022-12-03T16:39:09.183Z,74.03
2022-12-03T16:41:55.417Z,67.97
2022-12-03T16:45:00.375Z,69.18
2022-12-03T16:47:47.091Z,68.55
2022-12-03T16:50:33.071Z,73.28
2022-12-03T16:53:19.328Z,66.78
2022-12-03T16:56:05.321Z,67.68
2022-12-03T16:58:51.737Z,76.18
2022-12-03T17:01:38.401Z,64.38
2022-12-03T17:04:24.989Z,69.40
2022-12-03T17:07:11.495Z,66.38
2022-12-03T17:09:58.155Z,76.57
2022-12-03T17:13:08.942Z,67.25
2022-12-03T17:15:55.400Z,64.20
2022-12-03T17:18:41.605Z,67.00
2022-12-03T17:21:32.153Z,70.15
2022-12-03T17:24:21.589Z,68.10
2022-12-03T17:27:08.242Z,64.50
2022-12-03T17:30:06.376Z,66.65
2022-12-03T17:32:53.032Z,67.22
2022-12-03T17:35:39.066Z,67.10
2022-12-03T17:38:25.190Z,67.13
2022-12-03T17:41:11.325Z,70.70
2022-12-03T17:43:57.753Z,65.47
2022-12-03T17:46:44.816Z,65.50
2022-12-03T17:49:31.933Z,67.38
2022-12-03T17:52:18.120Z,71.20
2022-12-03T17:55:17.781Z,67.57
2022-12-03T17:58:10.445Z,65.47
2022-12-03T18:01:02.050Z,66.60
2022-12-03T18:03:49.187Z,72.50
2022-12-03T18:06:35.318Z,71.60
2022-12-03T18:09:22.264Z,68.50
2022-12-03T18:12:08.660Z,72.43
2022-12-03T18:14:54.787Z,73.50
2022-12-03T18:17:41.718Z,63.50
2022-12-03T18:20:27.957Z,75.40
2022-12-03T18:23:14.279Z,68.10
2022-12-03T18:26:01.631Z,76.28
2022-12-03T18:28:48.030Z,74.50
2022-12-03T18:31:34.436Z,78.47
2022-12-03T18:34:21.383Z,78.00
2022-12-03T18:37:07.929Z,72.93
2022-12-03T18:39:55.198Z,79.88
2022-12-03T18:42:41.842Z,75.68
2022-12-03T18:45:27.956Z,87.85
2022-12-03T18:48:15.288Z,77.18
2022-12-03T18:51:01.897Z,85.95
2022-12-03T18:53:49.049Z,79.90
2022-12-03T18:56:35.178Z,82.10
2022-12-03T18:59:21.913Z,80.75
2022-12-03T19:02:08.730Z,80.38
2022-12-03T19:04:54.926Z,76.97
2022-12-03T19:07:43.439Z,83.25
2022-12-03T19:10:30.018Z,78.78
2022-12-03T19:13:35.011Z,76.80
2022-12-03T19:16:22.509Z,73.50
2022-12-03T19:19:10.075Z,79.05
2022-12-03T19:21:56.475Z,77.75
2022-12-03T19:24:43.922Z,80.25
2022-12-03T19:27:30.703Z,72.65
2022-12-03T19:30:17.597Z,72.97
2022-12-03T19:33:03.856Z,81.60
2022-12-03T19:35:50.104Z,77.22
2022-12-03T19:38:36.366Z,74.65
2022-12-03T19:41:23.513Z,78.60
2022-12-03T19:44:14.506Z,74.20
2022-12-03T19:47:00.860Z,73.00
2022-12-03T19:49:46.923Z,79.13
2022-12-03T19:52:35.994Z,72.95
2022-12-03T19:55:22.417Z,70.95
2022-12-03T19:58:08.690Z,71.45
2022-12-03T20:00:55.279Z,76.40
2022-12-03T20:03:42.673Z,68.13
2022-12-03T20:06:30.135Z,74.78
2022-12-03T20:09:18.108Z,66.15
2022-12-03T20:12:04.818Z,64.72
2022-12-03T20:14:51.886Z,65.90
2022-12-03T20:17:37.850Z,66.35
2022-12-03T20:20:24.207Z,67.13
2022-12-03T20:23:10.422Z,67.28
2022-12-03T20:25:56.641Z,66.88
2022-12-03T20:28:45.477Z,73.13
2022-12-03T20:31:32.211Z,64.90
2022-12-03T20:34:18.619Z,60.85
2022-12-03T20:37:04.832Z,64.15
2022-12-03T20:39:51.262Z,63.55
2022-12-03T20:42:37.712Z,64.03
2022-12-03T20:45:24.869Z,65.78
2022-12-03T20:48:11.809Z,62.25
2022-12-03T20:50:58.054Z,65.47
2022-12-03T20:53:44.477Z,62.03
2022-12-03T20:56:32.522Z,61.78
2022-12-03T20:59:19.010Z,64.18
2022-12-03T21:02:05.470Z,58.78
2022-12-03T21:04:52.112Z,57.97
2022-12-03T21:07:38.389Z,64.80
2022-12-03T21:10:36.766Z,61.45
2022-12-03T21:13:26.583Z,66.38
2022-12-03T21:16:16.716Z,68.88
2022-12-03T21:19:02.867Z,67.65
2022-12-03T21:21:49.731Z,65.40
2022-12-03T21:24:36.347Z,68.30
2022-12-03T21:27:22.552Z,68.65
2022-12-03T21:30:08.841Z,66.22
2022-12-03T21:32:55.321Z,70.43
2022-12-03T21:35:41.665Z,67.88
2022-12-03T21:38:28.625Z,68.30
2022-12-03T21:41:15.579Z,62.95
2022-12-03T21:44:01.782Z,68.10
2022-12-03T21:47:09.263Z,61.80
2022-12-03T21:49:54.855Z,62.55
2022-12-03T21:52:41.520Z,56.88
2022-12-03T21:55:27.694Z,59.08
2022-12-03T21:58:14.391Z,59.25
2022-12-03T22:01:00.923Z,63.38
2022-12-03T22:03:49.122Z,62.63
2022-12-03T22:06:44.963Z,64.15
2022-12-03T22:09:31.396Z,60.72
2022-12-03T22:12:17.943Z,70.18
2022-12-03T22:15:04.667Z,62.80
2022-12-03T22:17:51.051Z,65.78
2022-12-03T22:20:37.322Z,68.68
2022-12-03T22:23:23.430Z,65.95
2022-12-03T22:26:11.654Z,68.15
2022-12-03T22:28:57.796Z,64.78
2022-12-03T22:31:43.921Z,71.07
2022-12-03T22:34:30.179Z,70.05
2022-12-03T22:37:16.518Z,68.20
2022-12-03T22:40:02.727Z,63.83
2022-12-03T22:42:51.149Z,62.00
2022-12-03T22:45:37.684Z,62.92
2022-12-03T22:48:24.577Z,59.30
2022-12-03T22:51:15.770Z,59.17
2022-12-03T22:54:02.619Z,57.78
2022-12-03T22:56:49.002Z,53.58
2022-12-03T22:59:35.023Z,54.25
2022-12-03T23:02:21.223Z,55.70
2022-12-03T23:05:07.890Z,59.50
2022-12-03T23:07:54.370Z,60.50
2022-12-03T23:10:41.907Z,58.92
2022-12-03T23:13:28.236Z,54.38
2022-12-03T23:16:15.973Z,54.13
2022-12-03T23:19:02.905Z,58.78
2022-12-03T23:21:49.145Z,52.90
2022-12-03T23:24:35.312Z,59.03
2022-12-03T23:27:21.287Z,56.88
2022-12-03T23:30:08.297Z,54.83
2022-12-03T23:32:54.304Z,56.42
2022-12-03T23:35:40.506Z,57.60
2022-12-03T23:38:26.710Z,56.65
2022-12-03T23:41:16.351Z,51.45
2022-12-03T23:44:02.647Z,53.67
2022-12-03T23:46:48.940Z,50.05
2022-12-03T23:49:34.877Z,50.15
2022-12-03T23:52:21.023Z,52.25
2022-12-03T23:55:07.443Z,55.72
2022-12-03T23:57:53.725Z,52.15
